• Join FlightAware (Why Join?)
  • Login
  • US Flag 
02:45AM EDT


 

Airport Tracker/Info


-or-


 

Live Flight TrackerFlight Track Log ✈ AWE3397 ✈ 12-Nov-2013 ✈ KMHT - KPHL

Flight Track Log - Related Links

Times and Time Zones

All times are in EST time to prevent confusion due to time zone crossing. See the AWE3397 flight status page for this flight to view local times or setup timezone preferences in your user account.

Time Position Orientation Groundspeed Altitude Reporting Facility
EST Latitude Longitude Course Direction KTS MPH feet Rate Location/Type
05:30AM 42.9500 -71.4333 314° West 134 154 1,200  Level KA90
05:31AM 42.9667 -71.4500 324° Northwest 153 176 2,600 1,860 Climbing KA90
05:32AM 42.9847 -71.4647 329° Northwest 165 190 3,500 2,220 Climbing Boston Center
05:33AM 42.7674 -71.6552 285° West  Level Estimated
05:33AM 43.0256 -71.5403 306° West 231 266 6,000  Level Boston Center
05:34AM 42.7121 -71.7281 270° West  Level Estimated
05:34AM 43.0708 -71.6150 310° West 252 290 9,500  Level Boston Center
05:35AM 42.6568 -71.8008 270° West  Level Estimated
05:36AM 42.7103 -71.8762 314° West  Level FlightAware Approximate
05:36AM 43.0717 -71.8064 270° West 261 300 14,700  Level Boston Center
05:37AM 43.0681 -71.9053 267° West 261 300 17,300 2,220 Climbing Boston Center
05:38AM 43.0633 -71.9894 266° West 263 303 19,100 1,860 Climbing Boston Center
05:39AM 43.0594 -72.0917 267° West 269 310 21,200 1,920 Climbing Boston Center
05:40AM 43.0544 -72.1947 266° West 273 314 23,100 1,680 Climbing Boston Center
05:41AM 43.0494 -72.3036 266° West 281 323 24,700 1,380 Climbing Boston Center
05:42AM 43.0444 -72.4114 266° West 284 327 26,000 600 Climbing Boston Center
05:43AM 43.0375 -72.5428 266° West 289 333 26,000  Level Boston Center
05:44AM 43.0325 -72.6383 266° West 289 333 26,000  Level Boston Center
05:45AM 43.0269 -72.7486 266° West 290 334 26,000  Level Boston Center
05:46AM 43.0214 -72.8581 266° West 290 334 26,000  Level Boston Center
05:47AM 43.0161 -72.9672 266° West 288 331 26,000  Level Boston Center
05:48AM 43.0089 -73.0825 265° West 287 330 26,000  Level Boston Center
05:49AM 43.0031 -73.1886 266° West 282 325 26,000  Level Boston Center
05:50AM 42.9972 -73.2961 266° West 284 327 26,000  Level Boston Center
05:51AM 42.9692 -73.3894 248° West 276 318 26,000  Level Boston Center
05:52AM 42.9253 -73.4739 235° Southwest 273 314 26,000  Level Boston Center
05:53AM 42.8794 -73.5594 234° Southwest 276 318 26,000  Level Boston Center
05:54AM 42.8344 -73.6444 234° Southwest 279 321 26,000  Level Boston Center
05:55AM 42.7889 -73.7269 233° Southwest 276 318 26,000  Level Boston Center
05:56AM 42.7439 -73.8119 234° Southwest 277 319 26,000  Level Boston Center
05:57AM 42.7011 -73.9003 237° Southwest 280 322 26,000  Level Boston Center
05:58AM 42.6583 -73.9881 236° Southwest 281 323 26,000  Level Boston Center
05:59AM 42.6136 -74.0803 237° Southwest 280 322 26,000  Level Boston Center
06:00AM 42.5628 -74.1836 236° Southwest 284 327 26,000  Level Boston Center
06:01AM 42.5197 -74.2728 237° Southwest 285 328 26,000  Level Boston Center
06:02AM 42.4756 -74.3617 236° Southwest 285 328 26,000  Level Boston Center
06:03AM 42.4375 -74.4381 236° Southwest 286 329 26,000 -240 Level Boston Center
06:04AM 42.3842 -74.5458 236° Southwest 287 330 25,600 -660 Descending Boston Center
06:05AM 42.3408 -74.6339 236° Southwest 283 326 24,700 -960 Descending Boston Center
06:06AM 42.2983 -74.7206 236° Southwest 278 320 23,700 -960 Descending Boston Center
06:07AM 42.2561 -74.8042 236° Southwest 273 314 22,800 -660 Descending Boston Center
06:13AM 41.9200 -75.1710 236° Southwest 100 115 19,000 -600 Descending FlightAware
06:13AM 41.8940 -75.1900 209° Southwest 100 115 19,000  Level FlightAware
06:14AM 41.8500 -75.2270 212° Southwest 282 325 19,000 -720 Level FlightAware
06:15AM 41.8140 -75.2540 209° Southwest 247 284 18,200 -1,620 Descending FlightAware
06:16AM 41.7297 -75.3264 209° Southwest 279 321 16,500 -1,440 Descending New York Center
06:17AM 41.6653 -75.3803 212° Southwest 279 321 15,200 -1,200 Descending New York Center
06:18AM 41.5986 -75.4311 210° Southwest 284 327 14,100 -1,020 Descending New York Center
06:19AM 41.5406 -75.4769 211° Southwest 279 321 13,300 -900 Descending New York Center
06:20AM 41.4761 -75.5278 211° Southwest 285 328 12,400 -600 Descending New York Center
06:21AM 41.4050 -75.5864 212° Southwest 285 328 12,100 -180 Descending New York Center
06:22AM 41.3428 -75.6344 210° Southwest 285 328 12,100 -360 Level New York Center
06:23AM 41.2603 -75.6617 194° South 274 315 11,500 -540 Descending New York Center
06:24AM 41.1781 -75.6392 168° South 291 335 11,100 -420 Descending New York Center
06:25AM 41.1019 -75.6144 166° South 304 350 10,700 -420 Descending New York Center
06:26AM 41.0072 -75.5883 168° South 315 362 10,300 -360 Descending New York Center
06:27AM 40.9225 -75.5658 169° South 315 362 10,000 -180 Descending New York Center
06:28AM 40.8383 -75.5408 167° South 315 362 10,000  Level New York Center
06:29AM 40.7639 -75.5219 169° South 315 362 10,000  Level New York Center
06:30AM 40.6817 -75.4969 167° South 315 362 10,000  Level New York Center
06:31AM 40.5889 -75.4714 168° South 315 362 10,000  Level New York Center
06:32AM 40.5083 -75.4497 168° South 310 357 10,000  Level New York Center
06:33AM 40.4344 -75.4228 164° South 310 357 10,000 -840 Level New York Center
06:34AM 40.3592 -75.3794 156° South 296 341 8,400 -1,500 Descending New York Center
06:35AM 40.2817 -75.3364 157° South 285 328 7,000 -1,080 Descending New York Center
06:36AM 40.2061 -75.2933 156° South 285 328 6,300 -540 Descending New York Center
06:37AM 40.1347 -75.2506 155° Southeast 290 334 6,000 -180 Descending New York Center
06:37AM 40.1000 -75.2000 132° Southeast 221 254 6,000  Level Philadelphia TRACON
06:38AM 40.0500 -75.1500 143° Southeast 221 254 6,000 -300 Level Philadelphia TRACON
06:39AM 40.0000 -75.1000 143° Southeast 218 251 5,400 -960 Descending Philadelphia TRACON
06:40AM 40.0000 -75.0333 90° East 205 236 4,100 -1,080 Descending Philadelphia TRACON
06:41AM 39.9833 -74.9833 113° Southeast 184 212 3,200 -540 Descending Philadelphia TRACON
06:42AM 39.9333 -75.0000 194° South 193 222 3,000 -240 Descending Philadelphia TRACON
06:43AM 39.9167 -75.0500 247° West 172 198 2,800 -600 Descending Philadelphia TRACON
06:44AM 39.9000 -75.1167 252° West 168 193 1,800 -900 Descending Philadelphia TRACON
06:45AM 39.8833 -75.1500 237° Southwest 132 152 1,100 -780 Descending Philadelphia TRACON
06:46AM 39.8833 -75.2000 270° West 124 143 500 -720 Descending Philadelphia TRACON